sensor_id;sensor_type;location;lat;lon;timestamp;pressure;altitude;pressure_sealevel;temperature;humidity
32638;BME280;19045;52.268;10.506;2022-09-01T00:00:47;101360.72;;;15.34;70.99
32638;BME280;19045;52.268;10.506;2022-09-01T00:03:15;101360.16;;;15.32;71.02
32638;BME280;19045;52.268;10.506;2022-09-01T00:05:43;101357.44;;;15.32;71.19
32638;BME280;19045;52.268;10.506;2022-09-01T00:08:10;101366.38;;;15.28;71.50
32638;BME280;19045;52.268;10.506;2022-09-01T00:10:39;101353.63;;;15.23;71.68
32638;BME280;19045;52.268;10.506;2022-09-01T00:13:06;101361.75;;;15.23;71.25
32638;BME280;19045;52.268;10.506;2022-09-01T00:15:33;101360.09;;;15.17;71.94
32638;BME280;19045;52.268;10.506;2022-09-01T00:18:00;101356.06;;;15.20;71.96
32638;BME280;19045;52.268;10.506;2022-09-01T00:20:28;101361.75;;;15.23;71.75
32638;BME280;19045;52.268;10.506;2022-09-01T00:22:55;101362.28;;;15.25;71.88
32638;BME280;19045;52.268;10.506;2022-09-01T00:25:22;101367.69;;;15.25;71.65
32638;BME280;19045;52.268;10.506;2022-09-01T00:27:50;101364.94;;;15.15;72.47
32638;BME280;19045;52.268;10.506;2022-09-01T00:30:18;101360.34;;;15.16;72.36
32638;BME280;19045;52.268;10.506;2022-09-01T00:32:44;101363.31;;;15.09;72.73
32638;BME280;19045;52.268;10.506;2022-09-01T00:35:12;101372.00;;;15.11;72.56
32638;BME280;19045;52.268;10.506;2022-09-01T00:37:38;101370.66;;;15.14;72.61
32638;BME280;19045;52.268;10.506;2022-09-01T00:40:06;101373.06;;;15.10;72.42
32638;BME280;19045;52.268;10.506;2022-09-01T00:42:34;101369.00;;;15.13;72.91
32638;BME280;19045;52.268;10.506;2022-09-01T00:45:03;101368.72;;;15.09;72.91
32638;BME280;19045;52.268;10.506;2022-09-01T00:47:30;101369.78;;;15.03;72.94
32638;BME280;19045;52.268;10.506;2022-09-01T00:49:57;101373.56;;;15.02;73.55
32638;BME280;19045;52.268;10.506;2022-09-01T00:52:34;101367.03;;;14.93;74.23
32638;BME280;19045;52.268;10.506;2022-09-01T00:55:07;101370.53;;;14.93;73.77
32638;BME280;19045;52.268;10.506;2022-09-01T00:57:35;101370.25;;;14.95;74.27
32638;BME280;19045;52.268;10.506;2022-09-01T01:00:07;101368.38;;;14.90;74.32
32638;BME280;19045;52.268;10.506;2022-09-01T01:02:36;101372.97;;;14.90;73.96
32638;BME280;19045;52.268;10.506;2022-09-01T01:05:04;101365.91;;;14.84;75.18
32638;BME280;19045;52.268;10.506;2022-09-01T01:07:32;101373.94;;;14.74;75.12
32638;BME280;19045;52.268;10.506;2022-09-01T01:10:08;101362.59;;;14.77;75.33
32638;BME280;19045;52.268;10.506;2022-09-01T01:12:36;101361.84;;;14.81;75.11
32638;BME280;19045;52.268;10.506;2022-09-01T01:15:07;101364.25;;;14.78;75.06
32638;BME280;19045;52.268;10.506;2022-09-01T01:17:34;101363.38;;;14.67;75.88
32638;BME280;19045;52.268;10.506;2022-09-01T01:20:02;101360.09;;;14.65;76.04
32638;BME280;19045;52.268;10.506;2022-09-01T01:22:52;101363.59;;;14.61;76.35
32638;BME280;19045;52.268;10.506;2022-09-01T01:25:31;101356.53;;;14.60;76.50
32638;BME280;19045;52.268;10.506;2022-09-01T01:28:08;101357.38;;;14.60;76.10
32638;BME280;19045;52.268;10.506;2022-09-01T01:30:36;101357.84;;;14.52;77.02
32638;BME280;19045;52.268;10.506;2022-09-01T01:33:05;101360.28;;;14.54;76.72
32638;BME280;19045;52.268;10.506;2022-09-01T01:35:32;101358.13;;;14.56;77.26
32638;BME280;19045;52.268;10.506;2022-09-01T01:38:00;101361.59;;;14.46;77.28
32638;BME280;19045;52.268;10.506;2022-09-01T01:40:28;101356.47;;;14.49;77.90
32638;BME280;19045;52.268;10.506;2022-09-01T01:42:55;101363.53;;;14.51;77.24
32638;BME280;19045;52.268;10.506;2022-09-01T01:45:23;101353.53;;;14.51;77.17
32638;BME280;19045;52.268;10.506;2022-09-01T01:47:51;101359.69;;;14.46;77.25
32638;BME280;19045;52.268;10.506;2022-09-01T01:50:25;101365.88;;;14.42;77.83
32638;BME280;19045;52.268;10.506;2022-09-01T01:52:54;101365.34;;;14.40;77.70
32638;BME280;19045;52.268;10.506;2022-09-01T01:55:24;101372.09;;;14.42;77.89
32638;BME280;19045;52.268;10.506;2022-09-01T01:57:54;101364.59;;;14.49;77.40
32638;BME280;19045;52.268;10.506;2022-09-01T02:00:24;101367.28;;;14.49;77.63
32638;BME280;19045;52.268;10.506;2022-09-01T02:02:52;101368.34;;;14.48;77.79
32638;BME280;19045;52.268;10.506;2022-09-01T02:05:20;101365.09;;;14.46;77.57
32638;BME280;19045;52.268;10.506;2022-09-01T02:07:51;101370.22;;;14.43;78.05
32638;BME280;19045;52.268;10.506;2022-09-01T02:10:21;101367.78;;;14.41;77.86
32638;BME280;19045;52.268;10.506;2022-09-01T02:12:48;101375.59;;;14.38;78.78
32638;BME280;19045;52.268;10.506;2022-09-01T02:15:17;101376.38;;;14.38;78.73
32638;BME280;19045;52.268;10.506;2022-09-01T02:17:44;101376.38;;;14.38;78.29
32638;BME280;19045;52.268;10.506;2022-09-01T02:20:11;101371.69;;;14.29;78.90
32638;BME280;19045;52.268;10.506;2022-09-01T02:22:40;101378.72;;;14.30;79.49
32638;BME280;19045;52.268;10.506;2022-09-01T02:25:09;101369.78;;;14.24;79.45
32638;BME280;19045;52.268;10.506;2022-09-01T02:27:36;101373.75;;;14.17;80.08
32638;BME280;19045;52.268;10.506;2022-09-01T02:30:07;101370.22;;;14.11;80.21
32638;BME280;19045;52.268;10.506;2022-09-01T02:32:37;101375.63;;;14.11;80.16
32638;BME280;19045;52.268;10.506;2022-09-01T02:35:06;101373.16;;;14.10;80.92
32638;BME280;19045;52.268;10.506;2022-09-01T02:37:36;101369.41;;;14.11;79.92
32638;BME280;19045;52.268;10.506;2022-09-01T02:40:06;101369.63;;;14.09;80.61
32638;BME280;19045;52.268;10.506;2022-09-01T02:42:35;101364.22;;;14.09;80.89
32638;BME280;19045;52.268;10.506;2022-09-01T02:45:06;101377.19;;;14.07;80.64
32638;BME280;19045;52.268;10.506;2022-09-01T02:47:43;101366.06;;;13.98;81.08
32638;BME280;19045;52.268;10.506;2022-09-01T02:50:12;101363.28;;;13.93;80.88
32638;BME280;19045;52.268;10.506;2022-09-01T02:52:41;101346.53;;;13.91;81.63
32638;BME280;19045;52.268;10.506;2022-09-01T02:55:09;101353.75;;;13.86;82.03
32638;BME280;19045;52.268;10.506;2022-09-01T02:57:36;101348.63;;;13.84;81.91
32638;BME280;19045;52.268;10.506;2022-09-01T03:00:04;101352.94;;;13.85;81.78
32638;BME280;19045;52.268;10.506;2022-09-01T03:02:47;101353.44;;;13.82;82.26
32638;BME280;19045;52.268;10.506;2022-09-01T03:05:15;101341.56;;;13.78;82.54
32638;BME280;19045;52.268;10.506;2022-09-01T03:07:52;101344.19;;;13.73;82.80
32638;BME280;19045;52.268;10.506;2022-09-01T03:10:23;101346.16;;;13.83;82.60
32638;BME280;19045;52.268;10.506;2022-09-01T03:12:58;101349.47;;;13.90;82.11
32638;BME280;19045;52.268;10.506;2022-09-01T03:15:26;101353.81;;;13.91;81.87
32638;BME280;19045;52.268;10.506;2022-09-01T03:17:55;101354.03;;;13.84;82.18
32638;BME280;19045;52.268;10.506;2022-09-01T03:20:25;101345.66;;;13.86;82.50
32638;BME280;19045;52.268;10.506;2022-09-01T03:22:53;101355.28;;;13.77;82.65
32638;BME280;19045;52.268;10.506;2022-09-01T03:25:22;101362.03;;;13.74;82.96
32638;BME280;19045;52.268;10.506;2022-09-01T03:27:49;101353.81;;;13.64;83.43
32638;BME280;19045;52.268;10.506;2022-09-01T03:30:17;101349.25;;;13.65;84.14
32638;BME280;19045;52.268;10.506;2022-09-01T03:32:44;101358.94;;;13.66;82.98
32638;BME280;19045;52.268;10.506;2022-09-01T03:35:13;101359.97;;;13.60;83.79
32638;BME280;19045;52.268;10.506;2022-09-01T03:37:40;101359.34;;;13.53;83.87
32638;BME280;19045;52.268;10.506;2022-09-01T03:40:10;101361.19;;;13.47;84.89
32638;BME280;19045;52.268;10.506;2022-09-01T03:42:37;101366.28;;;13.43;84.47
32638;BME280;19045;52.268;10.506;2022-09-01T03:45:05;101359.19;;;13.37;84.96
32638;BME280;19045;52.268;10.506;2022-09-01T03:47:34;101364.53;;;13.32;85.54
32638;BME280;19045;52.268;10.506;2022-09-01T03:50:04;101358.56;;;13.30;86.00
32638;BME280;19045;52.268;10.506;2022-09-01T03:52:33;101359.06;;;13.27;85.87
32638;BME280;19045;52.268;10.506;2022-09-01T03:54:59;101355.81;;;13.25;86.41
32638;BME280;19045;52.268;10.506;2022-09-01T03:57:26;101357.94;;;13.23;87.12
32638;BME280;19045;52.268;10.506;2022-09-01T03:59:54;101358.75;;;13.24;86.37
32638;BME280;19045;52.268;10.506;2022-09-01T04:02:21;101360.13;;;13.26;86.89
32638;BME280;19045;52.268;10.506;2022-09-01T04:04:47;101356.81;;;13.19;86.86
32638;BME280;19045;52.268;10.506;2022-09-01T04:07:14;101356.34;;;13.22;87.49
32638;BME280;19045;52.268;10.506;2022-09-01T04:09:42;101361.72;;;13.22;86.94
32638;BME280;19045;52.268;10.506;2022-09-01T04:12:09;101359.91;;;13.28;86.78
32638;BME280;19045;52.268;10.506;2022-09-01T04:14:40;101347.84;;;13.35;85.74
32638;BME280;19045;52.268;10.506;2022-09-01T04:17:06;101354.00;;;13.31;85.75
32638;BME280;19045;52.268;10.506;2022-09-01T04:19:50;101355.63;;;13.32;86.55
32638;BME280;19045;52.268;10.506;2022-09-01T04:22:17;101349.53;;;13.41;86.01
32638;BME280;19045;52.268;10.506;2022-09-01T04:24:46;101353.28;;;13.40;85.56
32638;BME280;19045;52.268;10.506;2022-09-01T04:27:14;101353.25;;;13.35;87.19
32638;BME280;19045;52.268;10.506;2022-09-01T04:29:42;101356.31;;;13.44;86.06
32638;BME280;19045;52.268;10.506;2022-09-01T04:32:10;101352.47;;;13.40;86.93
32638;BME280;19045;52.268;10.506;2022-09-01T04:34:38;101348.44;;;13.42;86.48
32638;BME280;19045;52.268;10.506;2022-09-01T04:37:07;101348.50;;;13.48;86.08
32638;BME280;19045;52.268;10.506;2022-09-01T04:39:35;101351.31;;;13.58;85.38
32638;BME280;19045;52.268;10.506;2022-09-01T04:42:05;101353.22;;;13.57;84.43
32638;BME280;19045;52.268;10.506;2022-09-01T04:44:34;101346.25;;;13.61;85.20
32638;BME280;19045;52.268;10.506;2022-09-01T04:47:01;101348.94;;;13.61;84.84
32638;BME280;19045;52.268;10.506;2022-09-01T04:49:27;101350.06;;;13.65;85.48
32638;BME280;19045;52.268;10.506;2022-09-01T04:51:58;101351.38;;;13.63;85.22
32638;BME280;19045;52.268;10.506;2022-09-01T04:54:24;101350.06;;;13.65;84.96
32638;BME280;19045;52.268;10.506;2022-09-01T04:56:51;101353.31;;;13.67;85.69
32638;BME280;19045;52.268;10.506;2022-09-01T04:59:22;101353.63;;;13.71;84.77
32638;BME280;19045;52.268;10.506;2022-09-01T05:01:51;101351.16;;;13.69;85.00
32638;BME280;19045;52.268;10.506;2022-09-01T05:04:21;101357.06;;;13.66;85.03
32638;BME280;19045;52.268;10.506;2022-09-01T05:06:50;101359.47;;;13.63;85.61
32638;BME280;19045;52.268;10.506;2022-09-01T05:09:19;101366.25;;;13.65;85.13
32638;BME280;19045;52.268;10.506;2022-09-01T05:11:46;101367.88;;;13.66;85.64
32638;BME280;19045;52.268;10.506;2022-09-01T05:14:14;101370.38;;;13.73;84.94
32638;BME280;19045;52.268;10.506;2022-09-01T05:16:45;101364.66;;;13.69;85.80
32638;BME280;19045;52.268;10.506;2022-09-01T05:19:12;101371.78;;;13.75;85.11
32638;BME280;19045;52.268;10.506;2022-09-01T05:21:40;101375.84;;;13.78;85.40
32638;BME280;19045;52.268;10.506;2022-09-01T05:24:11;101378.38;;;13.89;84.88
32638;BME280;19045;52.268;10.506;2022-09-01T05:26:38;101378.69;;;13.93;85.02
32638;BME280;19045;52.268;10.506;2022-09-01T05:29:06;101376.78;;;13.93;84.84
32638;BME280;19045;52.268;10.506;2022-09-01T05:31:38;101374.72;;;14.01;84.79
32638;BME280;19045;52.268;10.506;2022-09-01T05:34:08;101376.72;;;14.15;84.48
32638;BME280;19045;52.268;10.506;2022-09-01T05:36:41;101378.44;;;14.26;83.32
32638;BME280;19045;52.268;10.506;2022-09-01T05:39:09;101383.41;;;14.34;82.07
32638;BME280;19045;52.268;10.506;2022-09-01T05:41:36;101375.78;;;14.31;82.85
32638;BME280;19045;52.268;10.506;2022-09-01T05:44:04;101379.38;;;14.37;83.11
32638;BME280;19045;52.268;10.506;2022-09-01T05:46:33;101380.00;;;14.49;82.38
32638;BME280;19045;52.268;10.506;2022-09-01T05:49:04;101372.78;;;14.60;81.92
32638;BME280;19045;52.268;10.506;2022-09-01T05:51:40;101372.53;;;14.66;82.12
32638;BME280;19045;52.268;10.506;2022-09-01T05:54:08;101372.88;;;14.75;81.30
32638;BME280;19045;52.268;10.506;2022-09-01T05:56:37;101370.19;;;14.80;80.68
32638;BME280;19045;52.268;10.506;2022-09-01T05:59:05;101364.53;;;14.81;80.50
32638;BME280;19045;52.268;10.506;2022-09-01T06:01:33;101373.78;;;14.95;80.36
32638;BME280;19045;52.268;10.506;2022-09-01T06:04:04;101370.88;;;15.07;80.29
32638;BME280;19045;52.268;10.506;2022-09-01T06:06:35;101386.72;;;15.45;79.23
32638;BME280;19045;52.268;10.506;2022-09-01T06:09:06;101379.31;;;15.93;76.40
32638;BME280;19045;52.268;10.506;2022-09-01T06:11:33;101384.19;;;16.06;75.03
32638;BME280;19045;52.268;10.506;2022-09-01T06:14:00;101376.88;;;15.96;75.43
32638;BME280;19045;52.268;10.506;2022-09-01T06:16:28;101372.53;;;15.95;75.75
32638;BME280;19045;52.268;10.506;2022-09-01T06:18:55;101377.97;;;16.16;74.43
32638;BME280;19045;52.268;10.506;2022-09-01T06:21:25;101372.53;;;16.41;74.04
32638;BME280;19045;52.268;10.506;2022-09-01T06:23:54;101381.78;;;16.60;72.30
32638;BME280;19045;52.268;10.506;2022-09-01T06:26:24;101380.16;;;16.34;73.29
32638;BME280;19045;52.268;10.506;2022-09-01T06:28:53;101386.34;;;16.14;74.17
32638;BME280;19045;52.268;10.506;2022-09-01T06:31:21;101389.59;;;16.01;74.16
32638;BME280;19045;52.268;10.506;2022-09-01T06:33:50;101390.66;;;15.85;75.41
32638;BME280;19045;52.268;10.506;2022-09-01T06:36:19;101386.31;;;15.74;75.78
32638;BME280;19045;52.268;10.506;2022-09-01T06:38:47;101397.38;;;15.62;75.72
32638;BME280;19045;52.268;10.506;2022-09-01T06:41:14;101388.94;;;15.48;76.88
32638;BME280;19045;52.268;10.506;2022-09-01T06:43:45;101397.06;;;15.48;77.73
32638;BME280;19045;52.268;10.506;2022-09-01T06:46:12;101400.63;;;15.59;77.14
32638;BME280;19045;52.268;10.506;2022-09-01T06:48:39;101398.75;;;15.75;75.83
32638;BME280;19045;52.268;10.506;2022-09-01T06:51:12;101397.47;;;15.87;75.72
32638;BME280;19045;52.268;10.506;2022-09-01T06:53:39;101393.44;;;16.20;74.50
32638;BME280;19045;52.268;10.506;2022-09-01T06:56:07;101392.34;;;16.36;73.31
32638;BME280;19045;52.268;10.506;2022-09-01T06:58:38;101397.22;;;16.39;73.38
32638;BME280;19045;52.268;10.506;2022-09-01T07:01:09;101398.84;;;16.40;72.96
32638;BME280;19045;52.268;10.506;2022-09-01T07:03:41;101398.03;;;16.40;72.89
32638;BME280;19045;52.268;10.506;2022-09-01T07:06:09;101393.94;;;16.47;72.29
32638;BME280;19045;52.268;10.506;2022-09-01T07:08:36;101404.00;;;16.62;71.50
32638;BME280;19045;52.268;10.506;2022-09-01T07:11:06;101396.66;;;16.78;70.88
32638;BME280;19045;52.268;10.506;2022-09-01T07:13:33;101402.84;;;16.98;71.10
32638;BME280;19045;52.268;10.506;2022-09-01T07:16:02;101399.75;;;17.35;68.02
32638;BME280;19045;52.268;10.506;2022-09-01T07:18:32;101404.72;;;17.77;67.32
32638;BME280;19045;52.268;10.506;2022-09-01T07:21:00;101409.50;;;18.34;65.33
32638;BME280;19045;52.268;10.506;2022-09-01T07:23:32;101401.84;;;18.99;62.21
32638;BME280;19045;52.268;10.506;2022-09-01T07:25:59;101400.59;;;19.57;58.50
32638;BME280;19045;52.268;10.506;2022-09-01T07:28:25;101393.03;;;19.92;57.03
32638;BME280;19045;52.268;10.506;2022-09-01T07:30:57;101397.78;;;20.19;54.68
32638;BME280;19045;52.268;10.506;2022-09-01T07:33:25;101396.91;;;20.23;54.05
32638;BME280;19045;52.268;10.506;2022-09-01T07:35:53;101396.09;;;20.41;53.24
32638;BME280;19045;52.268;10.506;2022-09-01T07:38:21;101393.13;;;20.70;52.17
32638;BME280;19045;52.268;10.506;2022-09-01T07:40:48;101392.97;;;20.61;51.23
32638;BME280;19045;52.268;10.506;2022-09-01T07:43:21;101398.75;;;20.60;51.38
32638;BME280;19045;52.268;10.506;2022-09-01T07:45:50;101399.34;;;20.57;51.46
32638;BME280;19045;52.268;10.506;2022-09-01T07:48:21;101398.44;;;20.61;50.52
32638;BME280;19045;52.268;10.506;2022-09-01T07:50:50;101392.22;;;20.42;50.89
32638;BME280;19045;52.268;10.506;2022-09-01T07:53:20;101396.22;;;20.63;50.72
32638;BME280;19045;52.268;10.506;2022-09-01T07:55:48;101391.22;;;20.84;49.79
32638;BME280;19045;52.268;10.506;2022-09-01T07:58:17;101387.78;;;20.92;49.10
32638;BME280;19045;52.268;10.506;2022-09-01T08:00:45;101397.22;;;21.13;48.66
32638;BME280;19045;52.268;10.506;2022-09-01T08:03:15;101394.56;;;21.36;47.32
32638;BME280;19045;52.268;10.506;2022-09-01T08:05:43;101402.94;;;21.67;46.25
32638;BME280;19045;52.268;10.506;2022-09-01T08:08:12;101398.13;;;21.99;45.70
32638;BME280;19045;52.268;10.506;2022-09-01T08:10:40;101399.22;;;21.98;45.01
32638;BME280;19045;52.268;10.506;2022-09-01T08:13:09;101397.63;;;21.97;43.95
32638;BME280;19045;52.268;10.506;2022-09-01T08:15:37;101400.91;;;22.08;43.44
32638;BME280;19045;52.268;10.506;2022-09-01T08:18:04;101391.91;;;22.30;44.34
32638;BME280;19045;52.268;10.506;2022-09-01T08:20:31;101397.81;;;22.45;43.46
32638;BME280;19045;52.268;10.506;2022-09-01T08:22:59;101400.44;;;22.50;43.37
32638;BME280;19045;52.268;10.506;2022-09-01T08:25:29;101399.47;;;22.55;41.88
32638;BME280;19045;52.268;10.506;2022-09-01T08:27:57;101392.09;;;22.64;42.30
32638;BME280;19045;52.268;10.506;2022-09-01T08:30:24;101393.06;;;22.90;42.34
32638;BME280;19045;52.268;10.506;2022-09-01T08:32:52;101391.38;;;23.11;41.77
32638;BME280;19045;52.268;10.506;2022-09-01T08:35:19;101401.03;;;23.48;41.29
32638;BME280;19045;52.268;10.506;2022-09-01T08:37:45;101392.06;;;23.82;40.25
32638;BME280;19045;52.268;10.506;2022-09-01T08:40:15;101393.47;;;23.97;40.82
32638;BME280;19045;52.268;10.506;2022-09-01T08:42:51;101393.97;;;24.33;40.00
32638;BME280;19045;52.268;10.506;2022-09-01T08:45:24;101389.88;;;24.65;38.91
32638;BME280;19045;52.268;10.506;2022-09-01T08:47:54;101396.03;;;24.53;38.84
32638;BME280;19045;52.268;10.506;2022-09-01T08:50:23;101396.44;;;24.81;38.78
32638;BME280;19045;52.268;10.506;2022-09-01T08:52:55;101389.00;;;25.19;38.32
32638;BME280;19045;52.268;10.506;2022-09-01T08:55:27;101391.50;;;25.42;36.18
32638;BME280;19045;52.268;10.506;2022-09-01T08:57:59;101382.19;;;25.76;35.51
32638;BME280;19045;52.268;10.506;2022-09-01T09:00:29;101393.81;;;26.23;35.29
32638;BME280;19045;52.268;10.506;2022-09-01T09:03:08;101398.50;;;27.12;33.78
32638;BME280;19045;52.268;10.506;2022-09-01T09:05:58;101389.03;;;28.01;31.81
32638;BME280;19045;52.268;10.506;2022-09-01T09:08:46;101383.44;;;29.16;30.54
32638;BME280;19045;52.268;10.506;2022-09-01T09:14:09;101388.03;;;30.77;28.18
32638;BME280;19045;52.268;10.506;2022-09-01T09:16:42;101383.94;;;31.17;27.54
32638;BME280;19045;52.268;10.506;2022-09-01T09:19:15;101377.53;;;31.13;27.25
32638;BME280;19045;52.268;10.506;2022-09-01T09:21:47;101376.59;;;31.54;26.32
32638;BME280;19045;52.268;10.506;2022-09-01T09:24:20;101382.66;;;31.63;26.11
32638;BME280;19045;52.268;10.506;2022-09-01T09:26:50;101373.06;;;32.20;25.65
32638;BME280;19045;52.268;10.506;2022-09-01T09:29:17;101365.81;;;32.93;24.28
32638;BME280;19045;52.268;10.506;2022-09-01T09:31:46;101371.75;;;32.88;24.75
32638;BME280;19045;52.268;10.506;2022-09-01T09:34:29;101368.47;;;33.26;23.51
32638;BME280;19045;52.268;10.506;2022-09-01T09:37:00;101360.50;;;34.04;23.16
32638;BME280;19045;52.268;10.506;2022-09-01T09:39:26;101358.25;;;34.56;22.24
32638;BME280;19045;52.268;10.506;2022-09-01T09:42:04;101366.22;;;35.07;21.31
32638;BME280;19045;52.268;10.506;2022-09-01T09:44:39;101354.34;;;36.14;20.39
32638;BME280;19045;52.268;10.506;2022-09-01T09:47:10;101357.53;;;37.16;19.55
32638;BME280;19045;52.268;10.506;2022-09-01T09:50:10;101353.63;;;38.11;19.07
32638;BME280;19045;52.268;10.506;2022-09-01T09:52:38;101360.78;;;37.82;18.35
32638;BME280;19045;52.268;10.506;2022-09-01T09:55:19;101349.47;;;37.89;19.22
32638;BME280;19045;52.268;10.506;2022-09-01T09:57:47;101343.94;;;38.43;18.28
32638;BME280;19045;52.268;10.506;2022-09-01T10:00:19;101343.41;;;38.51;17.98
32638;BME280;19045;52.268;10.506;2022-09-01T10:02:49;101338.88;;;38.31;18.34
32638;BME280;19045;52.268;10.506;2022-09-01T10:05:24;101347.75;;;40.01;17.48
32638;BME280;19045;52.268;10.506;2022-09-01T10:07:52;101340.78;;;41.35;16.38
32638;BME280;19045;52.268;10.506;2022-09-01T10:10:27;101340.16;;;41.85;16.32
32638;BME280;19045;52.268;10.506;2022-09-01T10:12:55;101341.06;;;41.82;15.58
32638;BME280;19045;52.268;10.506;2022-09-01T10:15:24;101324.13;;;42.45;15.31
32638;BME280;19045;52.268;10.506;2022-09-01T10:17:54;101332.59;;;42.07;15.96
32638;BME280;19045;52.268;10.506;2022-09-01T10:20:25;101330.25;;;42.31;15.20
32638;BME280;19045;52.268;10.506;2022-09-01T10:22:52;101324.56;;;42.43;14.24
32638;BME280;19045;52.268;10.506;2022-09-01T10:25:21;101317.13;;;42.84;14.34
32638;BME280;19045;52.268;10.506;2022-09-01T10:27:51;101319.91;;;43.52;14.57
32638;BME280;19045;52.268;10.506;2022-09-01T10:30:20;101321.63;;;44.11;14.12
32638;BME280;19045;52.268;10.506;2022-09-01T10:32:49;101314.25;;;44.81;14.10
32638;BME280;19045;52.268;10.506;2022-09-01T10:35:22;101308.91;;;43.54;14.37
32638;BME280;19045;52.268;10.506;2022-09-01T10:37:50;101308.84;;;44.07;14.43
32638;BME280;19045;52.268;10.506;2022-09-01T10:40:33;101312.16;;;44.54;13.98
32638;BME280;19045;52.268;10.506;2022-09-01T10:43:27;101305.75;;;44.81;13.09
32638;BME280;19045;52.268;10.506;2022-09-01T10:45:59;101307.94;;;43.48;14.00
32638;BME280;19045;52.268;10.506;2022-09-01T10:48:28;101307.59;;;43.77;14.03
32638;BME280;19045;52.268;10.506;2022-09-01T10:53:57;101305.94;;;42.80;14.29
32638;BME280;19045;52.268;10.506;2022-09-01T10:56:37;101304.78;;;43.24;14.10
32638;BME280;19045;52.268;10.506;2022-09-01T10:59:06;101304.78;;;44.08;14.26
32638;BME280;19045;52.268;10.506;2022-09-01T11:05:16;101287.00;;;43.46;14.02
32638;BME280;19045;52.268;10.506;2022-09-01T11:07:43;101299.78;;;41.59;14.92
32638;BME280;19045;52.268;10.506;2022-09-01T11:10:44;101292.31;;;40.66;16.15
32638;BME280;19045;52.268;10.506;2022-09-01T11:13:30;101282.97;;;41.55;16.06
32638;BME280;19045;52.268;10.506;2022-09-01T11:16:28;101272.84;;;42.21;15.16
32638;BME280;19045;52.268;10.506;2022-09-01T11:19:16;101274.09;;;41.82;15.16
32638;BME280;19045;52.268;10.506;2022-09-01T11:22:03;101278.22;;;40.66;15.79
32638;BME280;19045;52.268;10.506;2022-09-01T11:24:46;101282.19;;;36.36;19.15
32638;BME280;19045;52.268;10.506;2022-09-01T11:30:17;101278.25;;;36.30;19.73
32638;BME280;19045;52.268;10.506;2022-09-01T11:32:47;101278.44;;;36.98;19.21
32638;BME280;19045;52.268;10.506;2022-09-01T11:35:18;101270.75;;;37.39;19.07
32638;BME280;19045;52.268;10.506;2022-09-01T11:37:47;101271.88;;;37.15;18.38
32638;BME280;19045;52.268;10.506;2022-09-01T11:40:20;101265.59;;;36.11;18.84
32638;BME280;19045;52.268;10.506;2022-09-01T11:42:48;101278.81;;;35.10;19.75
32638;BME280;19045;52.268;10.506;2022-09-01T11:45:22;101265.31;;;34.48;20.35
32638;BME280;19045;52.268;10.506;2022-09-01T11:47:51;101274.25;;;33.50;20.51
32638;BME280;19045;52.268;10.506;2022-09-01T11:50:22;101266.25;;;33.34;21.40
32638;BME280;19045;52.268;10.506;2022-09-01T11:52:55;101265.88;;;32.74;22.20
32638;BME280;19045;52.268;10.506;2022-09-01T11:55:29;101270.13;;;32.57;22.26
32638;BME280;19045;52.268;10.506;2022-09-01T11:57:57;101265.78;;;32.63;23.05
32638;BME280;19045;52.268;10.506;2022-09-01T12:00:35;101261.25;;;32.48;23.00
32638;BME280;19045;52.268;10.506;2022-09-01T12:03:04;101270.50;;;31.45;23.37
32638;BME280;19045;52.268;10.506;2022-09-01T12:05:34;101274.91;;;30.94;23.78
32638;BME280;19045;52.268;10.506;2022-09-01T12:08:02;101265.88;;;30.48;24.28
32638;BME280;19045;52.268;10.506;2022-09-01T12:10:33;101271.00;;;30.26;25.15
32638;BME280;19045;52.268;10.506;2022-09-01T12:13:03;101254.81;;;30.06;25.48
32638;BME280;19045;52.268;10.506;2022-09-01T12:15:30;101264.03;;;29.71;25.85
32638;BME280;19045;52.268;10.506;2022-09-01T12:18:12;101261.56;;;28.93;26.63
32638;BME280;19045;52.268;10.506;2022-09-01T12:20:41;101250.75;;;28.88;26.70
32638;BME280;19045;52.268;10.506;2022-09-01T12:23:22;101254.16;;;28.82;27.10
32638;BME280;19045;52.268;10.506;2022-09-01T12:25:50;101258.22;;;29.03;26.68
32638;BME280;19045;52.268;10.506;2022-09-01T12:28:16;101253.78;;;29.18;26.38
32638;BME280;19045;52.268;10.506;2022-09-01T12:30:43;101253.13;;;29.05;25.82
32638;BME280;19045;52.268;10.506;2022-09-01T12:33:12;101259.88;;;28.26;26.44
32638;BME280;19045;52.268;10.506;2022-09-01T12:35:39;101244.13;;;27.99;27.40
32638;BME280;19045;52.268;10.506;2022-09-01T12:38:24;101247.31;;;28.13;27.70
32638;BME280;19045;52.268;10.506;2022-09-01T12:40:53;101236.34;;;28.32;26.65
32638;BME280;19045;52.268;10.506;2022-09-01T12:43:31;101254.44;;;28.77;26.60
32638;BME280;19045;52.268;10.506;2022-09-01T12:45:58;101237.09;;;28.95;26.01
32638;BME280;19045;52.268;10.506;2022-09-01T12:48:29;101240.81;;;29.03;25.26
32638;BME280;19045;52.268;10.506;2022-09-01T12:50:58;101242.19;;;29.28;26.12
32638;BME280;19045;52.268;10.506;2022-09-01T12:53:28;101237.69;;;29.23;25.52
32638;BME280;19045;52.268;10.506;2022-09-01T12:56:05;101237.44;;;29.29;25.88
32638;BME280;19045;52.268;10.506;2022-09-01T12:58:32;101234.41;;;29.18;25.98
32638;BME280;19045;52.268;10.506;2022-09-01T13:01:02;101228.22;;;29.24;25.89
32638;BME280;19045;52.268;10.506;2022-09-01T13:03:32;101227.75;;;29.38;24.82
32638;BME280;19045;52.268;10.506;2022-09-01T13:06:01;101227.81;;;29.42;25.30
32638;BME280;19045;52.268;10.506;2022-09-01T13:08:29;101228.72;;;29.27;26.41